Aquinnah, Massachusetts
Current Conditions -  °F | °C
As of 6:03 PM on Friday 31 Oct 2014 (Local Time) from KMVY Reporting Station
Overcast Overcast  
Wind Chill: 52°   Ceiling: 4000
Heat Index: 52°   Visibility: 10mi
Dew Point: 44°   Wind: 15mph
Humidity: 74%   Direction: 70°ENE
Pressure: 29.95"   Gusts: 24mph
Location:  41.3536°N, 70.7417°W
Report Text: KMVY 312203Z 07013G21KT 10SM SCT023 OVC040 11/07 A2995 RMK AO2 T01110067
Loading
Personal Weather Stations






























Interactive Weather Map
Tropical Storm Tracking
New forecast layout! Learn more

10-Day Weather Forecast

Advertisements
Track Severe Weather on mobile